WetterOnline ( https://www.wetteronline.de )

Wetter aktuell Skive

Aktuelles Wetter: Karup (53m)

6-stündlich | Neueste Meldungen
Ortszeit Temperatur Wetter
Mi, 21.10. 20:00 11.7° C leichter Regen
Mi, 21.10. 14:00 12.8° C leichte Schauer
Mi, 21.10. 8:00 12.0° C bedeckt
Mi, 21.10. 2:00 11.6° C bedeckt
Di, 20.10. 20:00 7.7° C bedeckt
Di, 20.10. 14:00 10.3° C bedeckt
Di, 20.10. 8:00 7.7° C bewölkt
Di, 20.10. 2:00 7.1° C wolkig
Ortszeit Temperatur Wetter
Mi, 21.10. 21:20 12° C Regen
Mi, 21.10. 21:10 12° C Regen
Mi, 21.10. 21:05 12° C Regen
Mi, 21.10. 21:00 11.9° C leichte Schauer
Mi, 21.10. 20:52 12° C leichter Regen
Mi, 21.10. 20:50 12° C leichter Regen
Mi, 21.10. 20:22 12° C leichter Regen
Mi, 21.10. 20:00 11.7° C leichter Regen
Mi, 21.10. 19:30 12° C leichter Regen
Mi, 21.10. 19:00 11.8° C Regen
Mi, 21.10. 18:20 12° C Regen
Mi, 21.10. 18:00 12.1° C Regen
Ortszeit Relative Feuchte Sichtweite
Mi, 21.10. 20:00 98% 7 km
Mi, 21.10. 14:00 97% 7 km
Mi, 21.10. 8:00 97% 3.1 km
Mi, 21.10. 2:00 98% 2.9 km
Di, 20.10. 20:00 95% 5.0 km
Di, 20.10. 14:00 71% 40 km
Di, 20.10. 8:00 90% 10 km
Di, 20.10. 2:00 93% 30 km
Ortszeit Relative Feuchte Sichtweite
Mi, 21.10. 21:20 100% 4.2 km
Mi, 21.10. 21:10 94% 4.1 km
Mi, 21.10. 21:05 100% 3.7 km
Mi, 21.10. 21:00 97% 3.8 km
Mi, 21.10. 20:52 94% 4.9 km
Mi, 21.10. 20:50 94% 5.0 km
Mi, 21.10. 20:22 94% 5.0 km
Mi, 21.10. 20:00 98% 7 km
Mi, 21.10. 19:30 94% 6 km
Mi, 21.10. 19:00 97% 8 km
Mi, 21.10. 18:20 100% 9 km
Mi, 21.10. 18:00 97% 9 km
Ortszeit Niederschlagsmenge Niederschlagsart
Mi, 21.10. 20:00 6 l/m2 in 3 Std. Regen
Mi, 21.10. 14:00 0.1 l/m2 in 3 Std. Schauer
Mi, 21.10. 8:00 0.2 l/m2 in 3 Std. -
Mi, 21.10. 2:00 0.5 l/m2 in 3 Std. Schauer
Di, 20.10. 20:00 0.5 l/m2 in 3 Std. Schauer
Di, 20.10. 14:00 0.0 l/m2 in 3 Std. -
Di, 20.10. 8:00 keine Meldung -
Di, 20.10. 2:00 0.0 l/m2 in 3 Std. -
Ortszeit Niederschlagsmenge Niederschlagsart
Mi, 21.10. 21:20 keine Meldung -
Mi, 21.10. 21:10 keine Meldung -
Mi, 21.10. 21:05 keine Meldung -
Mi, 21.10. 21:00 0.4 l/m2 in 1 Std. Schauer
Mi, 21.10. 20:52 keine Meldung -
Mi, 21.10. 20:50 keine Meldung -
Mi, 21.10. 20:22 keine Meldung -
Mi, 21.10. 20:00 1.1 l/m2 in 1 Std. Regen
Mi, 21.10. 19:30 keine Meldung -
Mi, 21.10. 19:00 3.3 l/m2 in 1 Std. Regen
Mi, 21.10. 18:20 keine Meldung -
Mi, 21.10. 18:00 2.0 l/m2 in 1 Std. Regen
Ortszeit Stärke Spitze Richtung
km/h Bft. km/h Grad Sektor
Mi, 21.10. 20:00 13 3 - 140° SO
Mi, 21.10. 14:00 11 2 - 160° S
Mi, 21.10. 8:00 9 2 - 180° S
Mi, 21.10. 2:00 15 3 - 200° S
Di, 20.10. 20:00 17 3 - 170° S
Di, 20.10. 14:00 17 3 - 160° S
Di, 20.10. 8:00 13 3 - 140° SO
Di, 20.10. 2:00 13 3 - 160° S
Ortszeit Stärke Spitze Richtung
km/h Bft. km/h Grad Sektor
Mi, 21.10. 21:20 13 3 - 150° SO
Mi, 21.10. 21:10 13 3 - 150° SO
Mi, 21.10. 21:05 13 3 - 150° SO
Mi, 21.10. 21:00 13 3 - 150° SO
Mi, 21.10. 20:52 13 3 - 150° SO
Mi, 21.10. 20:50 15 3 - 150° SO
Mi, 21.10. 20:22 13 3 - 150° SO
Mi, 21.10. 20:00 13 3 - 140° SO
Mi, 21.10. 19:30 13 3 - 140° SO
Mi, 21.10. 19:00 13 3 - 140° SO
Mi, 21.10. 18:20 13 3 - 140° SO
Mi, 21.10. 18:00 13 3 - 140° SO
Ortszeit Untergrenze Bedeckung Gattung
total tief tief mittel hoch
Mi, 21.10. 20:00 150 m 8/8 8/8 - - -
Mi, 21.10. 14:00 120 m 8/8 8/8 - - -
Mi, 21.10. 8:00 120 m 8/8 8/8 - - -
Mi, 21.10. 2:00 90 m 8/8 8/8 - - -
Di, 20.10. 20:00 210 m 8/8 8/8 - - -
Di, 20.10. 14:00 3600 m 8/8 8/8 - - -
Di, 20.10. 8:00 1260 m 8/8 4/8 - - -
Di, 20.10. 2:00 1500 m 6/8 3/8 - - -
Ortszeit Bedeckungsgrad in Achtel und Wolkenuntergrenze
Mi, 21.10. 21:20 5-7(150m)
Mi, 21.10. 21:10 5-7(120m) 5-7(540m)
Mi, 21.10. 21:05 5-7(150m) 5-7(630m)
Mi, 21.10. 21:00 8(150m)
Mi, 21.10. 20:52 8(150m)
Mi, 21.10. 20:50 8(180m)
Mi, 21.10. 20:22 8(180m)
Mi, 21.10. 20:00 8(150m)
Mi, 21.10. 19:30 5-7(210m)
Mi, 21.10. 19:00 8(180m)
Mi, 21.10. 18:20 5-7(210m)
Mi, 21.10. 18:00 8(210m)
Ortszeit Luftdruck NN (hPa) Tendenz (hPa in 3 Std.)
Mi, 21.10. 20:00 995 - 3,0
Mi, 21.10. 14:00 1001 - 1,9
Mi, 21.10. 8:00 1003 - 0,3
Mi, 21.10. 2:00 1004 - 0,2
Di, 20.10. 20:00 1004 - 0,9
Di, 20.10. 14:00 1008 - 2,2
Di, 20.10. 8:00 1012 - 2,0
Di, 20.10. 2:00 1015 - 1,2
Ortszeit Luftdruck NN (hPa) Tendenz (hPa in 3 Std.)
Mi, 21.10. 21:20 992 keine Meldung
Mi, 21.10. 21:10 993 keine Meldung
Mi, 21.10. 21:05 993 keine Meldung
Mi, 21.10. 21:00 993 - 3,4
Mi, 21.10. 20:52 993 keine Meldung
Mi, 21.10. 20:50 993 keine Meldung
Mi, 21.10. 20:22 994 keine Meldung
Mi, 21.10. 20:00 995 - 3,0
Mi, 21.10. 19:30 995 keine Meldung
Mi, 21.10. 19:00 996 - 3,3
Mi, 21.10. 18:20 996 keine Meldung
Mi, 21.10. 18:00 997 - 3,6
Ortszeit Schneehöhe (cm)
Mi, 21.10. 20:00 -
Mi, 21.10. 14:00 -
Mi, 21.10. 8:00 -
Mi, 21.10. 2:00 -
Di, 20.10. 20:00 -
Di, 20.10. 14:00 -
Di, 20.10. 8:00 -
Di, 20.10. 2:00 -
Ortszeit Schneehöhe (cm)
Mi, 21.10. 21:20 -
Mi, 21.10. 21:10 -
Mi, 21.10. 21:05 -
Mi, 21.10. 21:00 -
Mi, 21.10. 20:52 -
Mi, 21.10. 20:50 -
Mi, 21.10. 20:22 -
Mi, 21.10. 20:00 -
Mi, 21.10. 19:30 -
Mi, 21.10. 19:00 -
Mi, 21.10. 18:20 -
Mi, 21.10. 18:00 -
Link zu dieser Seite / Seite empfehlen

Das Wetter in ...